Time;durP1;ratioP1;P1;durP2;ratioP2;P2;SDS_P1;SDS_P2;PMS_P1;PMS_P2;Temp;Humidity;BMP_temperature;BMP_pressure;BME280_temperature;BME280_humidity;BME280_pressure;Samples;Min_cycle;Max_cycle;Signal;HPM_P1;HPM_P2
2021/08/17 00:00:27;;;;;;;11.93;4.40;;;;;;;22.88;54.75;100205.13;4987958;28;20527;-74
2021/08/17 00:02:52;;;;;;;9.40;4.90;;;;;;;;;;4991302;28;20026;-73
2021/08/17 00:05:17;;;;;;;11.07;5.15;;;;;;;22.62;55.79;100219.59;4989082;28;20038;-74
2021/08/17 00:07:43;;;;;;;10.45;5.20;;;;;;;22.74;55.49;100236.06;4990121;28;20409;-77
2021/08/17 00:10:09;;;;;;;10.27;5.07;;;;;;;22.66;55.52;100230.94;4990760;28;20120;-72
2021/08/17 00:12:35;;;;;;;10.93;5.47;;;;;;;22.31;55.87;100203.44;4988369;28;20050;-72
2021/08/17 00:15:00;;;;;;;11.75;5.65;;;;;;;22.45;57.04;100232.19;4990930;28;20043;-74
2021/08/17 00:17:26;;;;;;;13.63;5.22;;;;;;;22.57;57.01;100237.25;4987260;28;20533;-75
2021/08/17 00:19:51;;;;;;;8.95;5.47;;;;;;;22.64;57.04;100227.47;4991213;28;20018;-74
2021/08/17 00:22:22;;;;;;;15.20;5.78;;;;;;;22.59;57.15;100230.19;4988812;28;20105;-74
2021/08/17 00:24:48;;;;;;;15.52;5.80;;;;;;;22.40;57.49;100221.72;4989158;28;20036;-73
2021/08/17 00:27:13;;;;;;;11.52;5.32;;;;;;;22.24;57.48;100205.31;4974651;28;20035;-73
2021/08/17 00:29:39;;;;;;;8.07;5.88;;;;;;;22.26;57.76;100234.19;4975299;28;20038;-75
2021/08/17 00:32:05;;;;;;;12.73;5.70;;;;;;;21.90;59.13;100234.69;4974688;28;20318;-77
2021/08/17 00:34:30;;;;;;;8.40;5.70;;;;;;;21.73;59.78;100227.06;4974797;28;20039;-76
2021/08/17 00:36:56;;;;;;;8.88;5.80;;;;;;;21.80;60.16;100233.94;4974372;28;20027;-76
2021/08/17 00:39:22;;;;;;;10.13;6.22;;;;;;;21.74;60.27;100225.28;4974870;28;20653;-78
2021/08/17 00:41:48;;;;;;;10.02;6.28;;;;;;;21.73;60.59;100241.94;4973517;28;20382;-78
2021/08/17 00:44:27;;;;;;;8.82;6.07;;;;;;;21.68;60.60;100236.72;4974986;28;20037;-79
2021/08/17 00:46:53;;;;;;;10.82;6.40;;;;;;;21.64;60.32;100232.41;4974358;28;20031;-75
2021/08/17 00:49:20;;;;;;;9.88;6.07;;;;;;;21.78;59.20;100232.22;4974850;28;20066;-76
2021/08/17 00:51:46;;;;;;;8.27;5.75;;;;;;;21.70;58.72;100232.34;4974358;28;20039;-74
2021/08/17 00:54:12;;;;;;;13.35;6.03;;;;;;;21.49;58.95;100222.94;4974363;28;20030;-74
2021/08/17 00:56:38;;;;;;;8.95;5.03;;;;;;;21.37;58.64;100210.81;4974776;28;20027;-76
2021/08/17 00:59:07;;;;;;;8.13;5.32;;;;;;;21.16;59.25;100241.69;4974673;28;20019;-76
2021/08/17 01:01:32;;;;;;;9.02;5.40;;;;;;;21.37;58.27;100225.69;4974487;28;20034;-75
2021/08/17 01:03:58;;;;;;;9.38;5.35;;;;;;;21.11;59.38;100232.09;4973993;28;20038;-77
2021/08/17 01:06:26;;;;;;;10.15;4.90;;;;;;;21.01;60.13;100236.59;4974052;28;20077;-74
2021/08/17 01:08:51;;;;;;;10.52;5.30;;;;;;;20.69;60.69;100222.84;4974373;28;20088;-78
2021/08/17 01:11:17;;;;;;;9.40;5.70;;;;;;;20.53;60.77;100203.72;4974384;28;20027;-75
2021/08/17 01:13:42;;;;;;;9.70;5.65;;;;;;;20.50;60.15;100192.44;4973811;28;20046;-75
2021/08/17 01:16:08;;;;;;;10.60;5.35;;;;;;;20.55;60.64;100213.34;4974051;28;20026;-76
2021/08/17 01:18:33;;;;;;;8.45;5.15;;;;;;;20.25;62.09;100217.94;4973995;28;20062;-77
2021/08/17 01:20:59;;;;;;;11.40;5.65;;;;;;;20.23;62.26;100220.56;4973311;28;20043;-77
2021/08/17 01:23:26;;;;;;;10.23;5.75;;;;;;;19.97;61.86;100194.53;4974124;28;20041;-76
2021/08/17 01:25:52;;;;;;;10.18;5.47;;;;;;;19.89;62.44;100207.69;4974016;28;20054;-77
2021/08/17 01:28:19;;;;;;;9.27;5.30;;;;;;;19.79;61.62;100177.13;4973572;28;20397;-76
2021/08/17 01:30:44;;;;;;;8.30;5.25;;;;;;;20.19;61.14;100214.47;4988774;28;20474;-76
2021/08/17 01:33:10;;;;;;;11.45;5.38;;;;;;;20.51;60.47;100209.88;4988355;28;20089;-79
2021/08/17 01:35:35;;;;;;;8.38;5.40;;;;;;;20.34;60.07;100205.63;4973674;28;20117;-73
2021/08/17 01:38:05;;;;;;;9.10;4.88;;;;;;;20.22;60.22;100195.25;4973577;28;20038;-74
2021/08/17 01:40:30;;;;;;;;;;;;;;;20.32;59.98;100214.41;4974064;28;20110;-77
2021/08/17 01:42:56;;;;;;;8.50;5.43;;;;;;;20.10;60.52;100208.44;4973818;28;20001;-79
2021/08/17 01:45:22;;;;;;;9.50;5.63;;;;;;;20.18;60.26;100204.00;4988306;28;20027;-73
2021/08/17 01:47:49;;;;;;;8.30;5.80;;;;;;;20.08;60.39;100184.00;4973597;28;20030;-73
2021/08/17 01:50:15;;;;;;;6.82;4.95;;;;;;;20.31;59.88;100223.13;4988360;28;20082;-73
2021/08/17 01:52:41;;;;;;;7.95;4.93;;;;;;;20.23;59.91;100204.00;4973218;28;20596;-72
2021/08/17 01:55:07;;;;;;;9.43;5.35;;;;;;;20.18;60.40;100211.88;4973481;28;20022;-72
2021/08/17 01:57:35;;;;;;;10.38;5.50;;;;;;;20.20;60.73;100210.13;4988250;28;20109;-71
2021/08/17 02:00:01;;;;;;;8.70;5.18;;;;;;;20.20;61.62;100203.13;4973588;28;20037;-72
2021/08/17 02:02:26;;;;;;;10.57;4.80;;;;;;;20.26;61.78;100198.72;4972861;28;20102;-73
2021/08/17 02:04:52;;;;;;;11.40;5.47;;;;;;;20.29;62.21;100191.69;4973123;28;20023;-72
2021/08/17 02:07:17;;;;;;;11.90;5.38;;;;;;;20.20;62.01;100176.91;4972752;28;20121;-71
2021/08/17 02:09:42;;;;;;;11.10;5.25;;;;;;;20.43;62.76;100203.84;4973433;28;20062;-75
2021/08/17 02:12:08;;;;;;;14.40;5.10;;;;;;;20.49;62.82;100212.50;4973240;28;20477;-74
2021/08/17 02:14:34;;;;;;;19.13;5.45;;;;;;;20.50;63.21;100193.28;4972888;28;20106;-74
2021/08/17 02:16:59;;;;;;;21.65;6.28;;;;;;;20.51;63.52;100176.66;4972766;28;20390;-73
2021/08/17 02:19:25;;;;;;;17.65;5.50;;;;;;;20.84;62.92;100186.88;4973078;28;20434;-74
2021/08/17 02:21:50;;;;;;;15.30;5.40;;;;;;;20.61;62.31;100151.22;4973147;28;20050;-74
2021/08/17 02:24:15;;;;;;;16.27;5.40;;;;;;;20.74;62.27;100175.63;4972915;28;20023;-73
2021/08/17 02:26:41;;;;;;;14.63;5.18;;;;;;;20.85;62.92;100199.13;4988128;28;20030;-71
2021/08/17 02:29:06;;;;;;;14.55;5.50;;;;;;;20.90;62.08;100181.59;4973024;28;20042;-71
2021/08/17 02:31:32;;;;;;;11.07;4.97;;;;;;;20.88;61.76;100188.59;4972425;28;20031;-72
2021/08/17 02:33:57;;;;;;;16.23;4.88;;;;;;;20.55;62.58;100176.63;4972615;28;20077;-74
2021/08/17 02:36:23;;;;;;;15.40;5.22;;;;;;;20.29;63.54;100177.72;4972881;28;20030;-75
2021/08/17 02:38:49;;;;;;;18.25;5.68;;;;;;;20.26;63.21;100188.22;4972661;28;20034;-73
2021/08/17 02:41:14;;;;;;;13.95;5.55;;;;;;;20.01;63.33;100151.72;4972520;28;20035;-78
2021/08/17 02:43:40;;;;;;;13.98;5.25;;;;;;;19.94;62.86;100131.66;4972465;28;20031;-75
2021/08/17 02:46:05;;;;;;;16.75;5.35;;;;;;;20.41;62.19;100179.38;4972560;28;20069;-74
2021/08/17 02:48:31;;;;;;;19.35;5.75;;;;;;;20.33;62.52;100179.44;4972442;28;20464;-73
2021/08/17 02:50:56;;;;;;;16.77;5.50;;;;;;;20.44;62.32;100193.34;4972727;28;20058;-74
2021/08/17 02:53:22;;;;;;;12.50;5.40;;;;;;;20.51;62.06;100186.28;4972478;28;20370;-74
2021/08/17 02:55:47;;;;;;;22.25;5.63;;;;;;;20.31;61.54;100183.81;4972524;28;20030;-74
2021/08/17 02:58:13;;;;;;;12.50;5.75;;;;;;;19.90;60.62;100159.66;4972751;28;20046;-74
2021/08/17 03:00:40;;;;;;;14.68;5.60;;;;;;;19.75;61.19;100197.25;4971922;28;20059;-74
2021/08/17 03:03:06;;;;;;;16.23;6.35;;;;;;;19.73;61.32;100189.38;4972341;28;20023;-74
2021/08/17 03:05:32;;;;;;;11.68;5.80;;;;;;;19.49;61.85;100206.09;4971488;28;20023;-73
2021/08/17 03:08:03;;;;;;;13.77;6.35;;;;;;;19.29;62.70;100208.78;4972394;28;20481;-71
2021/08/17 03:10:33;;;;;;;18.02;5.68;;;;;;;19.08;62.61;100204.50;4972411;28;20465;-75
2021/08/17 03:13:00;;;;;;;14.20;6.40;;;;;;;18.90;62.20;100172.28;4971932;28;20050;-71
2021/08/17 03:15:31;;;;;;;12.02;6.07;;;;;;;18.74;63.52;100207.09;4971998;28;20030;-75
2021/08/17 03:17:57;;;;;;;15.73;6.47;;;;;;;18.42;64.08;100180.13;4972394;28;20032;-75
2021/08/17 03:20:22;;;;;;;13.68;5.55;;;;;;;18.44;64.20;100206.25;4972663;28;20029;-75
2021/08/17 03:22:48;;;;;;;12.90;6.15;;;;;;;18.29;64.98;100212.31;4972326;28;20030;-72
2021/08/17 03:25:13;;;;;;;11.85;6.13;;;;;;;18.44;64.68;100208.84;4971917;28;20015;-73
2021/08/17 03:27:39;;;;;;;19.02;6.40;;;;;;;18.49;64.45;100207.16;4972295;28;20480;-72
2021/08/17 03:30:11;;;;;;;9.57;5.88;;;;;;;18.33;64.06;100174.91;4971761;28;20022;-72
2021/08/17 03:32:36;;;;;;;16.08;6.43;;;;;;;18.32;65.21;100212.34;4972036;28;20027;-77
2021/08/17 03:35:02;;;;;;;18.58;6.35;;;;;;;18.30;65.56;100197.53;4972169;28;20023;-79
2021/08/17 03:37:28;;;;;;;14.98;6.63;;;;;;;17.85;67.10;100215.72;4969676;28;20086;-74
2021/08/17 03:39:54;;;;;;;11.13;6.10;;;;;;;18.00;67.43;100215.78;4987530;28;20030;-73
2021/08/17 03:42:19;;;;;;;15.48;6.05;;;;;;;18.16;66.86;100218.44;4972158;28;20465;-75
2021/08/17 03:44:45;;;;;;;10.32;5.72;;;;;;;17.68;68.97;100210.41;4972230;28;20044;-78
2021/08/17 03:47:10;;;;;;;13.38;5.68;;;;;;;17.29;70.24;100194.59;4972240;28;20474;-77
2021/08/17 03:49:36;;;;;;;10.18;5.68;;;;;;;17.72;69.75;100220.88;4972275;28;20609;-76
2021/08/17 03:52:02;;;;;;;12.13;5.70;;;;;;;17.75;69.71;100222.63;4987415;28;20081;-73
2021/08/17 03:54:27;;;;;;;10.38;5.63;;;;;;;17.67;70.16;100216.50;4972279;28;20037;-78
2021/08/17 03:56:53;;;;;;;11.52;6.18;;;;;;;18.00;69.27;100228.84;4970918;28;20417;-76
2021/08/17 03:59:18;;;;;;;13.48;6.13;;;;;;;17.60;70.76;100226.91;4968035;28;20030;-76
2021/08/17 04:01:44;;;;;;;22.52;6.85;;;;;;;17.74;70.54;100219.13;4970740;28;20109;-77
2021/08/17 04:04:09;;;;;;;12.73;5.90;;;;;;;17.99;69.44;100210.56;4971810;28;20054;-73
2021/08/17 04:06:35;;;;;;;13.13;5.93;;;;;;;18.11;68.97;100215.81;4972015;28;20023;-76
2021/08/17 04:09:00;;;;;;;11.38;5.80;;;;;;;18.09;68.72;100191.41;4971963;28;20038;-74
2021/08/17 04:11:25;;;;;;;14.38;6.22;;;;;;;18.30;68.53;100218.44;4986933;28;20470;-75
2021/08/17 04:13:51;;;;;;;12.25;5.78;;;;;;;18.61;67.23;100214.09;4971756;28;20059;-75
2021/08/17 04:16:17;;;;;;;11.73;5.88;;;;;;;18.86;66.42;100216.69;4974315;28;20030;-74
2021/08/17 04:18:43;;;;;;;13.43;6.90;;;;;;;18.78;66.70;100206.25;4975717;28;20397;-77
2021/08/17 04:21:08;;;;;;;10.70;5.55;;;;;;;18.73;67.03;100216.72;4974270;28;20026;-76
2021/08/17 04:23:34;;;;;;;27.40;7.03;;;;;;;18.78;67.34;100210.59;4975588;28;20061;-79
2021/08/17 04:25:59;;;;;;;16.45;6.35;;;;;;;18.58;67.27;100169.66;4975379;28;20023;-77
2021/08/17 04:28:25;;;;;;;14.68;6.75;;;;;;;18.79;67.16;100209.72;4974058;28;20038;-78
2021/08/17 04:30:50;;;;;;;15.95;6.75;;;;;;;18.92;67.20;100220.19;4975735;28;20026;-75
2021/08/17 04:33:16;;;;;;;24.90;7.55;;;;;;;19.13;67.17;100218.44;4975434;28;20031;-80
2021/08/17 04:35:41;;;;;;;15.23;6.97;;;;;;;19.24;66.44;100213.19;4974019;28;20045;-76
2021/08/17 04:38:07;;;;;;;20.50;8.98;;;;;;;19.12;67.95;100219.31;4975215;28;20031;-75
2021/08/17 04:40:32;;;;;;;14.40;7.47;;;;;;;19.05;67.57;100220.19;4973951;28;20023;-78
2021/08/17 04:42:58;;;;;;;12.80;7.70;;;;;;;19.24;67.66;100232.34;4990077;28;20468;-78
2021/08/17 04:45:25;;;;;;;10.55;6.50;;;;;;;19.39;67.54;100212.25;4975177;28;20482;-73
2021/08/17 04:47:52;;;;;;;10.88;5.80;;;;;;;19.68;66.75;100211.25;4974889;28;20441;-75
2021/08/17 04:50:19;;;;;;;10.70;6.05;;;;;;;19.72;66.57;100218.22;4975101;28;20085;-74
2021/08/17 04:52:45;;;;;;;14.57;6.57;;;;;;;19.83;66.01;100219.06;4973754;28;20078;-75
2021/08/17 04:55:11;;;;;;;11.73;6.40;;;;;;;19.97;65.61;100218.97;4989901;28;20026;-73
2021/08/17 04:57:51;;;;;;;9.85;5.68;;;;;;;20.09;65.57;100215.44;4974707;28;20398;-78
2021/08/17 05:00:16;;;;;;;;;;;;;;;20.18;65.96;100223.22;4975419;28;20026;-78
2021/08/17 05:02:42;;;;;;;17.45;6.30;;;;;;;20.19;66.12;100227.59;4974781;28;19933;-79
2021/08/17 05:05:07;;;;;;;10.57;5.95;;;;;;;20.29;65.79;100217.06;4974601;28;20039;-79
2021/08/17 05:07:37;;;;;;;9.55;6.10;;;;;;;20.24;67.12;100211.84;4974539;28;20073;-78
2021/08/17 05:10:05;;;;;;;13.15;6.05;;;;;;;20.30;67.00;100221.38;4974736;28;20031;-76
2021/08/17 05:12:30;;;;;;;12.35;6.75;;;;;;;20.39;67.10;100215.22;4974440;28;20101;-74
2021/08/17 05:14:56;;;;;;;8.77;6.53;;;;;;;20.41;67.02;100209.09;4973424;28;20034;-78
2021/08/17 05:17:21;;;;;;;11.60;6.72;;;;;;;20.41;66.97;100214.34;4974614;28;20413;-79
2021/08/17 05:19:46;;;;;;;11.50;6.40;;;;;;;20.48;66.46;100210.78;4974600;28;20482;-78
2021/08/17 05:22:12;;;;;;;12.95;6.95;;;;;;;20.35;67.52;100214.41;4972014;28;20441;-77
2021/08/17 05:24:37;;;;;;;11.10;6.25;;;;;;;20.19;66.65;100177.78;4956027;28;20516;-75
2021/08/17 05:27:03;;;;;;;12.63;7.25;;;;;;;20.52;66.20;100224.72;4971285;28;20045;-74
2021/08/17 05:29:28;;;;;;;12.52;7.35;;;;;;;20.38;66.17;100224.84;4955742;28;20023;-78
2021/08/17 05:31:54;;;;;;;10.75;6.47;;;;;;;20.44;66.58;100213.44;4972234;28;20042;-74
2021/08/17 05:34:19;;;;;;;10.00;5.97;;;;;;;20.56;65.69;100222.97;4971810;28;20027;-74
2021/08/17 05:36:45;;;;;;;10.43;5.78;;;;;;;20.65;66.09;100223.75;4971920;28;20062;-77
2021/08/17 05:39:10;;;;;;;12.52;5.97;;;;;;;20.44;67.89;100227.41;4955560;28;20031;-73
2021/08/17 05:41:35;;;;;;;8.68;5.68;;;;;;;20.43;66.43;100223.06;4955581;28;20043;-73
2021/08/17 05:44:01;;;;;;;11.45;5.60;;;;;;;20.50;66.51;100221.28;4971798;28;20046;-78
2021/08/17 05:46:26;;;;;;;9.68;5.97;;;;;;;20.72;65.93;100227.22;4971691;28;20034;-74
2021/08/17 05:48:52;;;;;;;9.30;5.53;;;;;;;20.93;64.84;100220.03;4955327;28;20175;-76
2021/08/17 05:51:17;;;;;;;12.80;5.65;;;;;;;21.16;64.83;100222.44;4955644;28;20031;-76
2021/08/17 05:53:43;;;;;;;12.50;6.07;;;;;;;21.23;64.79;100223.22;4966595;28;20039;-74
2021/08/17 05:56:08;;;;;;;10.30;5.25;;;;;;;21.21;65.02;100222.38;4974239;28;20027;-79
2021/08/17 05:58:34;;;;;;;12.60;6.72;;;;;;;21.37;63.83;100226.59;4973991;28;20027;-77
2021/08/17 06:00:59;;;;;;;10.25;5.65;;;;;;;21.38;62.71;100211.69;4973449;28;20077;-77
2021/08/17 06:03:25;;;;;;;9.43;5.63;;;;;;;21.48;61.98;100213.31;4973748;28;20085;-77
2021/08/17 06:05:51;;;;;;;7.25;5.47;;;;;;;21.50;62.38;100212.41;4973839;28;20085;-79
2021/08/17 06:08:16;;;;;;;6.80;4.90;;;;;;;21.48;63.42;100202.78;4973377;28;20034;-74
2021/08/17 06:10:42;;;;;;;7.50;4.93;;;;;;;21.64;63.29;100216.66;4973425;28;20100;-78
2021/08/17 06:13:07;;;;;;;7.95;5.40;;;;;;;21.69;64.18;100208.72;4973574;28;20055;-78
2021/08/17 06:15:33;;;;;;;10.15;5.18;;;;;;;21.67;63.08;100211.38;4973693;28;20041;-78
2021/08/17 06:18:03;;;;;;;7.75;4.97;;;;;;;21.71;63.30;100180.63;4973376;28;20031;-77
2021/08/17 06:20:29;;;;;;;16.08;5.68;;;;;;;22.05;62.74;100219.59;4973219;28;20101;-74
2021/08/17 06:22:55;;;;;;;13.50;5.45;;;;;;;22.26;61.46;100206.13;4973155;28;20038;-73
2021/08/17 06:25:20;;;;;;;8.27;4.93;;;;;;;22.28;62.45;100213.97;4972397;28;20512;-74
2021/08/17 06:27:46;;;;;;;9.50;5.57;;;;;;;22.33;62.45;100206.03;4973052;28;20045;-73
2021/08/17 06:30:11;;;;;;;9.88;5.57;;;;;;;22.36;62.21;100204.22;4973400;28;20505;-79
2021/08/17 06:32:37;;;;;;;9.00;5.30;;;;;;;22.48;61.86;100194.44;4973701;28;20469;-73
2021/08/17 06:35:03;;;;;;;11.30;5.13;;;;;;;22.70;61.55;100206.31;4973007;28;20026;-78
2021/08/17 06:37:29;;;;;;;10.80;5.50;;;;;;;22.61;63.34;100185.44;4972787;28;20162;-77
2021/08/17 06:39:55;;;;;;;13.93;5.60;;;;;;;23.00;62.66;100209.28;4955738;28;20046;-76
2021/08/17 06:42:20;;;;;;;9.00;5.78;;;;;;;23.21;62.15;100208.03;4965152;28;20035;-75
2021/08/17 06:44:46;;;;;;;9.55;5.32;;;;;;;23.36;62.17;100196.34;4962331;28;20038;-75
2021/08/17 06:47:11;;;;;;;7.93;5.00;;;;;;;23.61;61.18;100197.59;4968276;28;20032;-76
2021/08/17 06:49:37;;;;;;;11.73;5.68;;;;;;;23.72;61.46;100201.72;4954014;28;20121;-77
2021/08/17 06:52:02;;;;;;;17.60;5.50;;;;;;;23.73;62.05;100198.19;4953275;28;20031;-75
2021/08/17 06:54:28;;;;;;;13.02;5.95;;;;;;;23.61;61.93;100189.69;4967708;28;20409;-76
2021/08/17 06:56:53;;;;;;;10.00;5.78;;;;;;;23.36;63.57;100179.69;4969868;28;20034;-74
2021/08/17 06:59:19;;;;;;;11.38;6.07;;;;;;;23.59;63.09;100202.91;4967980;28;20045;-76
2021/08/17 07:01:44;;;;;;;11.20;5.20;;;;;;;23.54;61.59;100181.03;4969450;28;20473;-78
2021/08/17 07:04:10;;;;;;;11.23;5.13;;;;;;;23.81;60.90;100187.47;4968138;28;20035;-74
2021/08/17 07:06:35;;;;;;;12.10;5.85;;;;;;;23.98;62.92;100183.66;4967844;28;20034;-76
2021/08/17 07:09:02;;;;;;;9.90;4.90;;;;;;;24.02;61.94;100188.78;4970438;28;20037;-76
2021/08/17 07:11:29;;;;;;;7.97;5.20;;;;;;;23.90;61.64;100181.13;4971581;28;20033;-75
2021/08/17 07:13:54;;;;;;;12.50;5.50;;;;;;;24.05;62.16;100180.81;4970981;28;20051;-77
2021/08/17 07:16:20;;;;;;;8.60;4.97;;;;;;;24.23;62.54;100181.28;4968771;28;20045;-74
2021/08/17 07:18:45;;;;;;;12.85;5.45;;;;;;;24.29;60.42;100151.22;4971343;28;20029;-76
2021/08/17 07:21:11;;;;;;;15.90;5.20;;;;;;;24.54;58.96;100177.88;4971710;28;20062;-77
2021/08/17 07:23:36;;;;;;;10.60;5.32;;;;;;;24.48;59.47;100155.16;4970887;28;20496;-76
2021/08/17 07:26:02;;;;;;;8.70;5.72;;;;;;;24.74;60.40;100176.53;4966175;28;20038;-76
2021/08/17 07:28:28;;;;;;;12.68;5.07;;;;;;;24.87;58.52;100175.28;4969367;28;20468;-78
2021/08/17 07:30:53;;;;;;;8.30;4.78;;;;;;;25.14;57.56;100186.00;4969916;28;20039;-74
2021/08/17 07:33:19;;;;;;;9.27;4.82;;;;;;;25.37;57.84;100182.72;4969442;28;20034;-73
2021/08/17 07:35:45;;;;;;;8.52;5.20;;;;;;;25.60;57.13;100176.75;4970110;28;20114;-77
2021/08/17 07:38:10;;;;;;;9.20;5.55;;;;;;;25.49;57.40;100145.34;4971646;28;20038;-74
2021/08/17 07:40:38;;;;;;;9.27;4.88;;;;;;;25.59;57.51;100175.03;4976484;28;20478;-74
2021/08/17 07:43:04;;;;;;;8.55;4.57;;;;;;;25.52;57.25;100174.34;4971487;28;20019;-73
2021/08/17 07:45:29;;;;;;;11.00;4.90;;;;;;;25.59;56.93;100175.03;4971443;28;20058;-73
2021/08/17 07:47:55;;;;;;;7.30;4.50;;;;;;;25.54;53.20;100171.66;4969638;28;20063;-68
2021/08/17 07:50:21;;;;;;;9.77;4.57;;;;;;;25.63;52.61;100176.69;4971539;28;20507;-72
2021/08/17 07:52:47;;;;;;;7.20;4.55;;;;;;;25.61;53.39;100162.66;4975426;28;20030;-69
2021/08/17 07:55:13;;;;;;;8.77;4.40;;;;;;;25.74;51.60;100164.91;4975138;28;20039;-70
2021/08/17 07:57:40;;;;;;;10.10;4.35;;;;;;;25.90;52.59;100166.16;4973338;28;20022;-71
2021/08/17 08:00:08;;;;;;;9.40;4.82;;;;;;;26.08;53.88;100170.03;4975066;28;20038;-73
2021/08/17 08:02:34;;;;;;;28.67;5.75;;;;;;;26.29;52.87;100170.22;4988897;28;20409;-73
2021/08/17 08:05:00;;;;;;;9.85;4.68;;;;;;;26.47;48.63;100174.06;4975465;28;20082;-69
2021/08/17 08:07:25;;;;;;;13.18;4.85;;;;;;;26.40;47.35;100136.34;4970370;28;20414;-69
2021/08/17 08:09:50;;;;;;;11.35;5.28;;;;;;;26.74;46.13;100156.41;4967446;28;20375;-70
2021/08/17 08:12:16;;;;;;;13.43;5.03;;;;;;;26.90;47.91;100156.69;4962508;28;20126;-68
2021/08/17 08:14:43;;;;;;;9.32;5.07;;;;;;;27.04;46.34;100157.97;4957857;28;20661;-66
2021/08/17 08:17:09;;;;;;;10.23;4.53;;;;;;;27.18;48.62;100157.47;4972760;28;20036;-69
2021/08/17 08:19:35;;;;;;;12.40;4.80;;;;;;;27.38;44.40;100162.03;4959357;28;20034;-66
2021/08/17 08:22:01;;;;;;;10.70;4.78;;;;;;;27.56;48.16;100149.88;4963459;28;20023;-69
2021/08/17 08:24:26;;;;;;;11.05;5.03;;;;;;;27.60;46.28;100147.06;4976532;28;20085;-69
2021/08/17 08:26:52;;;;;;;13.15;4.85;;;;;;;27.64;45.63;100144.28;4965926;28;20519;-69
2021/08/17 08:29:17;;;;;;;9.35;5.10;;;;;;;27.64;48.07;100144.28;4966959;28;20477;-68
2021/08/17 08:31:43;;;;;;;11.02;4.72;;;;;;;27.74;46.47;100137.69;4970210;28;20552;-66
2021/08/17 08:34:08;;;;;;;20.38;6.28;;;;;;;27.90;46.16;100125.53;4974182;28;20110;-68
2021/08/17 08:36:33;;;;;;;9.88;4.50;;;;;;;28.07;45.73;100131.97;4979439;28;20039;-70
2021/08/17 08:38:59;;;;;;;13.23;5.07;;;;;;;28.18;47.55;100123.56;4977577;28;20037;-67
2021/08/17 08:41:25;;;;;;;12.57;4.60;;;;;;;28.33;46.05;100130.88;4992801;28;20496;-70
2021/08/17 08:43:51;;;;;;;10.00;4.70;;;;;;;28.53;43.87;100134.47;4974855;28;20026;-68
2021/08/17 08:46:19;;;;;;;8.55;4.43;;;;;;;28.62;45.85;100130.56;4974533;28;20029;-66
2021/08/17 08:48:49;;;;;;;8.88;4.32;;;;;;;28.74;44.11;100138.00;4974709;28;20038;-68
2021/08/17 08:51:17;;;;;;;7.80;4.32;;;;;;;28.83;43.20;100134.09;4974876;28;20089;-67
2021/08/17 08:53:42;;;;;;;20.85;4.50;;;;;;;28.84;44.75;100112.75;4955832;28;20138;-69
2021/08/17 08:56:08;;;;;;;9.18;4.45;;;;;;;28.88;42.20;100119.66;4958335;28;20557;-70
2021/08/17 08:58:34;;;;;;;13.27;4.45;;;;;;;29.03;40.84;100118.09;4972946;28;20045;-71
2021/08/17 09:00:59;;;;;;;6.78;3.95;;;;;;;28.95;41.44;100096.34;4965464;28;20356;-68
2021/08/17 09:03:44;;;;;;;7.55;4.28;;;;;;;29.09;41.14;100116.97;4968729;28;20035;-70
2021/08/17 09:06:22;;;;;;;6.90;4.10;;;;;;;29.16;41.16;100110.44;4966358;28;20134;-71
2021/08/17 09:09:02;;;;;;;8.23;4.15;;;;;;;29.25;39.50;100116.22;4960058;28;20047;-69
2021/08/17 09:11:28;;;;;;;6.75;3.80;;;;;;;29.21;39.76;100107.56;4962453;28;20478;-71
2021/08/17 09:13:53;;;;;;;9.13;4.35;;;;;;;29.08;40.33;100103.75;4971091;28;20121;-71
2021/08/17 09:16:23;;;;;;;9.45;4.13;;;;;;;29.32;40.34;100101.75;4971086;28;20023;-68
2021/08/17 09:18:50;;;;;;;8.00;3.75;;;;;;;29.44;39.84;100077.25;4972549;28;20531;-67
2021/08/17 09:21:15;;;;;;;6.57;4.32;;;;;;;29.72;40.40;100101.66;4964192;28;20110;-67
2021/08/17 09:23:41;;;;;;;8.88;4.05;;;;;;;29.85;40.42;100097.44;4960569;28;20113;-69
2021/08/17 09:26:29;;;;;;;9.13;4.15;;;;;;;29.97;41.16;100093.31;4952882;28;20043;-69
2021/08/17 09:29:02;;;;;;;6.22;4.05;;;;;;;30.09;42.67;100090.06;4978092;28;20528;-70
2021/08/17 09:31:32;;;;;;;12.15;4.45;;;;;;;30.21;39.12;100088.59;4978998;28;20027;-68
2021/08/17 09:33:58;;;;;;;16.33;4.72;;;;;;;30.12;38.25;100051.75;4980175;28;20505;-69
2021/08/17 09:36:23;;;;;;;9.48;4.00;;;;;;;30.40;36.78;100083.16;4957387;28;20023;-67
2021/08/17 09:38:49;;;;;;;7.25;4.28;;;;;;;30.18;36.39;100033.69;4956089;28;20489;-69
2021/08/17 09:41:23;;;;;;;6.70;4.13;;;;;;;30.51;36.38;100074.66;4960626;28;20540;-67
2021/08/17 09:44:01;;;;;;;57.13;40.95;;;;;;;30.43;36.51;100075.03;4955541;28;20019;-68
2021/08/17 09:46:32;;;;;;;15.35;10.55;;;;;;;30.53;36.88;100079.88;4954619;28;20038;-69
2021/08/17 09:49:16;;;;;;;30.17;27.02;;;;;;;30.65;36.12;100063.25;4953976;28;20110;-68
2021/08/17 09:51:41;;;;;;;12.88;9.52;;;;;;;30.60;38.05;100031.50;4957766;28;20035;-68
2021/08/17 09:54:15;;;;;;;7.88;4.55;;;;;;;30.79;35.39;100050.06;4957325;28;20029;-68
2021/08/17 09:56:41;;;;;;;6.65;4.50;;;;;;;30.84;37.75;100051.59;4957306;28;20039;-68
2021/08/17 09:59:07;;;;;;;7.50;5.00;;;;;;;31.07;34.67;100053.88;4956089;28;20034;-68
2021/08/17 10:01:35;;;;;;;6.15;4.00;;;;;;;31.13;33.15;100055.38;4956358;28;20490;-68
2021/08/17 10:04:02;;;;;;;11.73;4.13;;;;;;;31.29;33.25;100050.00;4953697;28;20557;-69
2021/08/17 10:06:28;;;;;;;6.65;3.75;;;;;;;31.17;33.67;100038.25;4960314;28;20404;-69
2021/08/17 10:08:57;;;;;;;7.38;3.65;;;;;;;31.34;36.18;100037.31;4989555;28;20030;-69
2021/08/17 10:11:23;;;;;;;6.63;4.55;;;;;;;31.51;33.52;100024.78;4993407;28;20037;-68
2021/08/17 10:13:50;;;;;;;4.55;3.25;;;;;;;31.75;31.66;100039.41;4994429;28;20050;-69
2021/08/17 10:16:18;;;;;;;7.10;3.33;;;;;;;31.71;33.38;100029.00;4965988;28;20034;-67
2021/08/17 10:18:45;;;;;;;8.32;3.60;;;;;;;31.39;32.42;100027.22;4957166;28;20109;-66
2021/08/17 10:21:16;;;;;;;6.70;3.30;;;;;;;31.80;35.15;100025.78;4957557;28;20091;-70
2021/08/17 10:23:45;;;;;;;7.57;3.40;;;;;;;32.02;32.22;100025.38;4955267;28;20039;-68
2021/08/17 10:26:32;;;;;;;7.10;4.30;;;;;;;32.25;31.93;100025.81;4967382;28;20520;-68
2021/08/17 10:29:00;;;;;;;7.60;4.00;;;;;;;32.25;33.05;100021.34;5002936;28;20026;-70
2021/08/17 10:31:29;;;;;;;6.47;3.65;;;;;;;32.47;31.55;100017.34;4994915;28;20033;-70
2021/08/17 10:34:08;;;;;;;10.90;4.50;;;;;;;32.54;31.68;100018.69;4981752;28;20055;-69
2021/08/17 10:36:45;;;;;;;8.70;3.55;;;;;;;32.67;29.96;100008.06;4969687;28;20497;-69
2021/08/17 10:39:16;;;;;;;5.80;3.25;;;;;;;32.92;29.73;100005.69;4958811;28;20485;-69
2021/08/17 10:41:44;;;;;;;6.63;3.80;;;;;;;33.12;29.96;100004.41;4955116;28;20035;-69
2021/08/17 10:44:16;;;;;;;9.10;3.70;;;;;;;33.27;28.65;99994.50;4953036;28;20160;-70
2021/08/17 10:46:44;;;;;;;5.32;3.28;;;;;;;33.38;28.59;99992.84;4950986;28;20136;-69
2021/08/17 10:49:29;;;;;;;6.23;3.43;;;;;;;33.46;27.70;99996.84;4979112;28;20062;-70
2021/08/17 10:52:31;;;;;;;27.92;4.07;;;;;;;33.65;27.10;99997.34;4988909;28;20054;-70
2021/08/17 10:55:20;;;;;;;5.28;3.35;;;;;;;33.81;26.79;99985.56;4947903;29;20054;-69
2021/08/17 10:58:08;;;;;;;;;;;;;;;33.72;27.19;99981.69;4948630;28;21699;-68
2021/08/17 11:00:54;;;;;;;5.60;3.17;;;;;;;33.65;29.58;99967.88;4929391;28;20022;-68
2021/08/17 11:03:49;;;;;;;4.60;3.22;;;;;;;33.85;29.76;99979.09;4930831;29;20573;-69
2021/08/17 11:06:42;;;;;;;4.80;3.20;;;;;;;34.08;27.21;99973.97;4930160;29;20048;-68
2021/08/17 11:09:28;;;;;;;5.20;3.15;;;;;;;34.24;27.09;99974.59;4928058;29;20573;-66
2021/08/17 11:12:05;;;;;;;7.88;3.00;;;;;;;34.24;26.17;99953.16;4928868;29;20048;-69
2021/08/17 11:14:35;;;;;;;8.82;3.50;;;;;;;34.42;25.96;99955.53;4931128;29;20044;-66
2021/08/17 11:17:12;;;;;;;4.40;3.20;;;;;;;34.28;25.11;99957.34;4914315;29;20036;-69
2021/08/17 11:19:57;;;;;;;9.05;6.28;;;;;;;34.37;25.48;99953.19;4931193;29;20047;-69
2021/08/17 11:22:28;;;;;;;6.75;4.53;;;;;;;34.66;26.64;99942.19;4930144;29;20046;-69